Terminal Aerodrome Forecast
Issued by NWS

Home | Current Version | Previous Version | Text Only | Print | Product List | Glossary On
Versions: 1 2 3 4 5 6 7 8 9 10 11 12 13 14 15 16 17
872
FTUS46 KMTR 170542
TAFOAK
TAF
KOAK 170542Z 1706/1812 30008KT P6SM SCT012
     FM170800 29005KT P6SM BKN012
     FM171600 30006KT P6SM SCT015
     FM172000 29012KT P6SM FEW010
     FM180400 29006KT P6SM FEW010
     FM180900 29004KT P6SM BKN008=

USA.gov is the U.S. government's official web portal to all federal, state and local government web resources and services.